Islamabad, Pakistan

6:55 AM PKT on October 22, 2014 (GMT +0500)
Chacklala International | Change Station
CLOSE
Current Station
Airport
Location: Islamabad,
Elevation: 508 m
Nearby Weather Stations

Elev 508 m 33.62 °N, 73.10 °E | Updated 55 minutes ago

Clear
Clear
17 °C
Feels Like 17 °C
N
0
Wind Variable Wind from North

Today
High -- | Low -- °C
--% Chance of Precip.
Yesterday
High -- | Low -- °C
Precip. -- mm
6:17 AM 5:26 PM
Waning Crescent, 3% visible
Pressure 1019 hPa
Visibility 6.0 kilometers
Clouds Clear
Dew Point 14 °C
Humidity 82%
Rainfall 0.0 mm
Snow Depth Not available.
UV 0 out of 12
Pollen Not available.
Air Quality Not available.
Flu Activity Not available.
METAR OPRN 220100Z 00000KT 6000 SKC 17/14 Q1019.4/30.10

More Conditions Fewer Conditions

Pressure 1019 hPa
Visibility 6.0 kilometers
Clouds Clear
Dew Point 14 °C
Humidity 82%
Rainfall 0.0 mm
Snow Depth Not available.
UV 0 out of 12
Pollen Not available.
Air Quality Not available.
Flu Activity Not available.
METAR OPRN 220100Z 00000KT 6000 SKC 17/14 Q1019.4/30.10

More Conditions Fewer Conditions

10-Day Weather Forecast

Almanac

Astronomy

Oct. 22, 2014 Rise Set
Actual Time 6:17 AM PKT 5:26 PM PKT
Civil Twilight 5:52 AM PKT 5:51 PM PKT
Nautical Twilight 5:23 AM PKT 6:20 PM PKT
Astronomical Twilight 4:54 AM PKT 6:49 PM PKT
Moon 4:37 AM PKT 4:34 PM PKT
Length of Visible Light 11h 59m
Length of Day
11h 08m
Tomorrow will be 1m 57s shorter.
Waning Crescent, 3% of the Moon is Illuminated
Oct 21
Waning Crescent
Oct 23
New
Oct 30
First Quarter
Nov 6
Full
Nov 14
Last Quarter

Yesterday's Extremes

Country Highs Country Lows

Community

WunderPhotos

Upload Photos

1,763,843 photos uploaded!

Nearby

Snow Depth

Not available.

Earthquake Activity

City Distance Mag. Time & Date
No recent earthquake activity has been reported nearby.
Minimum magnitude displayed is 2.5.

Coastal Water Temperatures

Place Temperature
No Stations Reporting

Nearby Weather Stations